VAH weather

Capitán Av. Vidal Villagomez Toledo Airport
Vallegrande, Santa Cruz Department, Bolivia

Public forecast

Using degrees Celsius for public forecast. Weather courtesy of forecast.io.

METAR (pilot weather report)

Report is more than 6 hours old.

Retrieved 2019/04/07 14:00 UTC (14 days ago):

SLVG 071400Z 18005KT 9999 NSC 18/01 Q1030

TAF (pilot weather forecast)

Forecast is more than 12 hours old.

Closest forecast is El Trompillo Airport, 66.5 nm (123.2 km) NE. Retrieved 2019/04/20 00:24 UTC (1 day ago):

TAF TAF SLET 202200Z 2100/2124 34010KT 9999 BKN015 TX31/2119Z TN23/2111Z PROB30 TEMPO 2108/2112 8000 RA SCT005 BKN010 BECMG 2113/2117 35018KT SCT015 BKN017